createdAt,value
2023-06-20T00:00:50.829Z,70.07
2023-06-20T00:03:19.590Z,69.77
2023-06-20T00:05:47.578Z,69.03
2023-06-20T00:08:15.557Z,69.00
2023-06-20T00:10:43.670Z,68.93
2023-06-20T00:13:11.701Z,68.70
2023-06-20T00:15:42.549Z,69.11
2023-06-20T00:18:10.782Z,69.03
2023-06-20T00:20:38.717Z,68.85
2023-06-20T00:23:07.815Z,69.71
2023-06-20T00:25:35.743Z,69.75
2023-06-20T00:28:04.428Z,69.82
2023-06-20T00:30:32.418Z,69.61
2023-06-20T00:33:01.767Z,69.74
2023-06-20T00:35:30.376Z,69.53
2023-06-20T00:37:58.235Z,69.34
2023-06-20T00:40:26.302Z,69.75
2023-06-20T00:42:54.265Z,70.04
2023-06-20T00:45:30.377Z,70.58
2023-06-20T00:47:59.704Z,70.86
2023-06-20T00:50:29.713Z,70.27
2023-06-20T00:53:02.498Z,71.20
2023-06-20T00:55:32.676Z,71.55
2023-06-20T00:58:01.460Z,73.61
2023-06-20T01:00:31.776Z,74.84
2023-06-20T01:03:03.108Z,76.28
2023-06-20T01:05:33.154Z,75.51
2023-06-20T01:08:09.053Z,75.38
2023-06-20T01:10:48.912Z,74.93
2023-06-20T01:13:27.290Z,74.87
2023-06-20T01:16:03.186Z,75.96
2023-06-20T01:18:44.972Z,75.95
2023-06-20T01:21:19.875Z,76.46
2023-06-20T01:23:56.698Z,76.29
2023-06-20T01:26:31.456Z,75.92
2023-06-20T01:29:04.577Z,75.85
2023-06-20T01:31:37.354Z,74.36
2023-06-20T01:34:09.203Z,74.47
2023-06-20T01:36:41.905Z,74.44
2023-06-20T01:39:15.827Z,73.48
2023-06-20T01:41:46.495Z,73.90
2023-06-20T01:44:17.066Z,74.10
2023-06-20T01:46:48.531Z,74.80
2023-06-20T01:49:17.894Z,75.79
2023-06-20T01:51:46.847Z,76.22
2023-06-20T01:54:18.643Z,75.95
2023-06-20T01:56:48.578Z,75.98
2023-06-20T01:59:17.777Z,76.11
2023-06-20T02:01:47.890Z,76.22
2023-06-20T02:04:18.616Z,76.19
2023-06-20T02:06:48.305Z,76.21
2023-06-20T02:09:18.700Z,76.19
2023-06-20T02:11:47.943Z,76.38
2023-06-20T02:14:16.461Z,76.80
2023-06-20T02:16:45.570Z,76.84
2023-06-20T02:19:13.582Z,76.83
2023-06-20T02:21:44.325Z,76.64
2023-06-20T02:24:14.574Z,75.36
2023-06-20T02:26:46.765Z,75.55
2023-06-20T02:29:16.244Z,75.42
2023-06-20T02:31:49.029Z,74.82
2023-06-20T02:34:21.193Z,75.09
2023-06-20T02:36:50.111Z,75.35
2023-06-20T02:39:18.200Z,74.88
2023-06-20T02:41:47.461Z,74.00
2023-06-20T02:44:15.383Z,73.60
2023-06-20T02:46:51.712Z,74.44
2023-06-20T02:49:30.015Z,74.13
2023-06-20T02:52:06.096Z,73.69
2023-06-20T02:54:40.160Z,73.82
2023-06-20T02:57:13.779Z,74.26
2023-06-20T02:59:46.644Z,74.43
2023-06-20T03:02:18.418Z,74.39
2023-06-20T03:04:49.345Z,74.85
2023-06-20T03:07:21.136Z,74.98
2023-06-20T03:09:50.229Z,75.24
2023-06-20T03:12:19.934Z,74.06
2023-06-20T03:14:47.910Z,74.56
2023-06-20T03:17:17.007Z,75.09
2023-06-20T03:19:45.036Z,75.53
2023-06-20T03:22:12.962Z,75.30
2023-06-20T03:24:41.076Z,75.32
2023-06-20T03:27:09.370Z,74.45
2023-06-20T03:29:38.710Z,74.95
2023-06-20T03:32:07.393Z,75.31
2023-06-20T03:34:35.332Z,74.81
2023-06-20T03:37:03.235Z,74.76
2023-06-20T03:39:31.179Z,75.11
2023-06-20T03:41:59.090Z,74.93
2023-06-20T03:44:27.032Z,75.13
2023-06-20T03:46:56.361Z,74.79
2023-06-20T03:49:24.344Z,75.28
2023-06-20T03:51:52.259Z,74.84
2023-06-20T03:54:22.274Z,74.84
2023-06-20T03:56:50.241Z,74.14
2023-06-20T03:59:19.346Z,74.57
2023-06-20T04:01:47.351Z,74.21
2023-06-20T04:04:17.327Z,73.14
2023-06-20T04:06:50.649Z,72.04
2023-06-20T04:09:18.884Z,72.32
2023-06-20T04:11:47.549Z,71.82
2023-06-20T04:14:15.590Z,71.08
2023-06-20T04:16:43.567Z,71.06
2023-06-20T04:19:11.471Z,68.72
2023-06-20T04:21:40.701Z,66.53
2023-06-20T04:24:08.756Z,67.23
2023-06-20T04:26:37.411Z,67.33
2023-06-20T04:29:05.372Z,68.18
2023-06-20T04:31:33.265Z,68.65
2023-06-20T04:34:01.232Z,67.46
2023-06-20T04:36:30.051Z,68.20
2023-06-20T04:38:59.508Z,67.56
2023-06-20T04:41:27.492Z,67.89
2023-06-20T04:43:55.432Z,67.47
2023-06-20T04:46:23.375Z,67.40
2023-06-20T04:48:51.321Z,67.00
2023-06-20T04:51:19.463Z,68.57
2023-06-20T04:53:50.689Z,66.73
2023-06-20T04:56:21.268Z,65.33
2023-06-20T04:58:49.258Z,64.49
2023-06-20T05:01:17.797Z,64.89
2023-06-20T05:03:49.458Z,66.26
2023-06-20T05:06:19.264Z,66.94
2023-06-20T05:08:47.527Z,67.33
2023-06-20T05:11:15.471Z,66.46
2023-06-20T05:13:44.920Z,66.37
2023-06-20T05:16:12.862Z,65.69
2023-06-20T05:18:43.261Z,65.86
2023-06-20T05:21:13.297Z,65.63
2023-06-20T05:23:41.296Z,65.67
2023-06-20T05:26:09.285Z,65.38
2023-06-20T05:28:37.297Z,64.38
2023-06-20T05:31:06.745Z,64.10
2023-06-20T05:33:34.807Z,64.33
2023-06-20T05:36:02.950Z,64.31
2023-06-20T05:38:32.727Z,63.36
2023-06-20T05:41:00.898Z,63.61
2023-06-20T05:43:28.809Z,62.72
2023-06-20T05:45:56.731Z,63.05
2023-06-20T05:48:26.700Z,62.43
2023-06-20T05:50:54.743Z,61.78
2023-06-20T05:53:24.435Z,60.10
2023-06-20T05:55:52.874Z,57.97
2023-06-20T05:58:21.087Z,56.21
2023-06-20T06:00:50.406Z,55.91
2023-06-20T06:03:20.156Z,55.41
2023-06-20T06:05:49.681Z,54.00
2023-06-20T06:08:18.560Z,52.85
2023-06-20T06:10:46.553Z,53.00
2023-06-20T06:13:14.507Z,52.28
2023-06-20T06:15:53.314Z,51.93
2023-06-20T06:18:27.273Z,51.14
2023-06-20T06:20:56.919Z,50.75
2023-06-20T06:23:25.868Z,51.29
2023-06-20T06:25:53.877Z,48.39
2023-06-20T06:28:22.517Z,46.80
2023-06-20T06:30:50.567Z,46.72
2023-06-20T06:33:20.986Z,45.08
2023-06-20T06:35:50.225Z,45.42
2023-06-20T06:38:19.974Z,46.10
2023-06-20T06:40:48.008Z,46.46
2023-06-20T06:43:16.834Z,46.11
2023-06-20T06:45:44.769Z,46.28
2023-06-20T06:48:13.336Z,46.25
2023-06-20T06:50:41.361Z,46.26
2023-06-20T06:53:10.294Z,46.15
2023-06-20T06:55:39.671Z,46.36
2023-06-20T06:58:07.549Z,46.21
2023-06-20T07:00:35.924Z,46.55
2023-06-20T07:03:04.536Z,46.01
2023-06-20T07:05:32.688Z,45.99
2023-06-20T07:08:00.621Z,45.94
2023-06-20T07:10:28.555Z,45.67
2023-06-20T07:12:58.414Z,45.37
2023-06-20T07:15:26.482Z,44.58
2023-06-20T07:17:54.568Z,45.15
2023-06-20T07:20:22.533Z,44.84
2023-06-20T07:22:50.504Z,44.61
2023-06-20T07:25:20.285Z,43.85
2023-06-20T07:27:48.241Z,44.15
2023-06-20T07:30:18.083Z,44.19
2023-06-20T07:32:46.043Z,44.11
2023-06-20T07:35:14.040Z,43.44
2023-06-20T07:37:42.321Z,44.17
2023-06-20T07:40:11.459Z,44.69
2023-06-20T07:42:39.361Z,45.34
2023-06-20T07:45:08.528Z,44.99
2023-06-20T07:47:37.807Z,44.34
2023-06-20T07:50:06.494Z,44.46
2023-06-20T07:52:34.685Z,44.78
2023-06-20T07:55:08.229Z,44.53
2023-06-20T07:57:44.670Z,45.60
2023-06-20T08:00:14.180Z,44.98
2023-06-20T08:02:43.593Z,44.15
2023-06-20T08:05:13.056Z,43.43
2023-06-20T08:07:40.993Z,44.22
2023-06-20T08:10:11.484Z,43.15
2023-06-20T08:12:39.622Z,43.58
2023-06-20T08:15:08.646Z,43.39
2023-06-20T08:17:36.779Z,43.13
2023-06-20T08:20:10.132Z,43.68
2023-06-20T08:22:38.440Z,43.58
2023-06-20T08:25:07.767Z,43.56
2023-06-20T08:27:35.705Z,43.99
2023-06-20T08:30:04.340Z,43.94
2023-06-20T08:32:32.406Z,43.13
2023-06-20T08:35:00.380Z,42.31
2023-06-20T08:37:29.690Z,42.67
2023-06-20T08:39:57.644Z,42.20
2023-06-20T08:42:25.722Z,42.85
2023-06-20T08:44:58.072Z,41.17
2023-06-20T08:47:27.184Z,41.19
2023-06-20T08:49:55.222Z,40.39
2023-06-20T08:52:30.135Z,40.82
2023-06-20T08:55:00.002Z,40.04
2023-06-20T08:57:28.070Z,40.02
2023-06-20T08:59:57.599Z,39.03
2023-06-20T09:02:25.585Z,39.04
2023-06-20T09:05:03.929Z,37.68
2023-06-20T09:07:37.775Z,38.40
2023-06-20T09:10:08.636Z,37.07
2023-06-20T09:12:50.415Z,37.38
2023-06-20T09:15:19.759Z,36.29
2023-06-20T09:17:51.942Z,36.97
2023-06-20T09:20:20.458Z,37.16
2023-06-20T09:22:48.527Z,37.04
2023-06-20T09:25:23.575Z,37.35
2023-06-20T09:27:52.315Z,37.33
2023-06-20T09:30:23.333Z,37.36
2023-06-20T09:32:53.400Z,37.19
2023-06-20T09:35:22.848Z,36.71
2023-06-20T09:37:53.670Z,35.62
2023-06-20T09:40:23.023Z,34.44
2023-06-20T09:42:58.714Z,34.96
2023-06-20T09:45:27.066Z,34.60
2023-06-20T09:47:57.392Z,33.40
2023-06-20T09:50:26.605Z,32.71
2023-06-20T09:53:05.788Z,33.20
2023-06-20T09:55:37.236Z,33.78
2023-06-20T09:58:06.402Z,34.50
2023-06-20T10:00:37.061Z,35.36
2023-06-20T10:03:10.539Z,35.68
2023-06-20T10:05:39.631Z,35.87
2023-06-20T10:08:09.573Z,36.28
2023-06-20T10:10:38.886Z,36.42
2023-06-20T10:13:07.267Z,35.67
2023-06-20T10:15:35.596Z,36.25
2023-06-20T10:18:04.028Z,35.99
2023-06-20T10:20:35.249Z,36.17
2023-06-20T10:23:06.612Z,35.84
2023-06-20T10:25:35.503Z,35.02
2023-06-20T10:28:06.590Z,35.23
2023-06-20T10:30:59.198Z,35.54
2023-06-20T10:33:28.711Z,35.23
2023-06-20T10:35:58.442Z,35.58
2023-06-20T10:38:26.571Z,35.06
2023-06-20T10:41:14.937Z,35.06
2023-06-20T10:43:55.389Z,33.88
2023-06-20T10:46:29.917Z,34.08
2023-06-20T10:48:58.069Z,34.51
2023-06-20T10:51:27.232Z,34.39
2023-06-20T10:53:55.162Z,34.18
2023-06-20T10:56:29.959Z,34.67
2023-06-20T10:58:59.254Z,33.90
2023-06-20T11:01:30.832Z,33.72
2023-06-20T11:03:59.340Z,33.59
2023-06-20T11:06:31.078Z,33.88
2023-06-20T11:08:58.995Z,33.84
2023-06-20T11:11:34.145Z,33.29
2023-06-20T11:14:13.524Z,32.61
2023-06-20T11:16:41.732Z,32.58
2023-06-20T11:19:19.485Z,32.44
2023-06-20T11:22:02.419Z,31.64
2023-06-20T11:24:31.744Z,31.80
2023-06-20T11:27:12.801Z,31.74
2023-06-20T11:29:42.273Z,31.15
2023-06-20T11:32:11.460Z,30.75
2023-06-20T11:34:55.597Z,30.36
2023-06-20T11:37:24.535Z,30.78
2023-06-20T11:39:53.236Z,31.03
2023-06-20T11:42:21.722Z,31.28
2023-06-20T11:44:51.790Z,31.69
2023-06-20T11:47:19.885Z,31.50
2023-06-20T11:49:48.333Z,30.85
2023-06-20T11:52:16.305Z,30.64
2023-06-20T11:54:51.557Z,31.18
2023-06-20T11:57:27.659Z,31.93
2023-06-20T12:00:00.495Z,31.26
2023-06-20T12:02:29.172Z,31.18
2023-06-20T12:04:58.688Z,31.66
2023-06-20T12:07:27.850Z,30.94
2023-06-20T12:09:56.090Z,31.26
2023-06-20T12:12:31.693Z,31.17
2023-06-20T12:15:01.828Z,30.68
2023-06-20T12:17:29.949Z,30.87
2023-06-20T12:19:58.970Z,29.21
2023-06-20T12:22:30.289Z,28.63
2023-06-20T12:25:00.475Z,28.78
2023-06-20T12:27:28.461Z,29.91
2023-06-20T12:29:56.353Z,27.25
2023-06-20T12:32:27.047Z,27.27
2023-06-20T12:34:55.228Z,28.27
2023-06-20T12:37:24.030Z,28.42
2023-06-20T12:39:52.555Z,28.62
2023-06-20T12:42:21.059Z,29.12
2023-06-20T12:44:49.011Z,29.00
2023-06-20T12:47:17.554Z,28.36
2023-06-20T12:49:47.581Z,29.35
2023-06-20T12:52:15.536Z,28.66
2023-06-20T12:54:43.514Z,28.62
2023-06-20T12:57:11.472Z,27.52
2023-06-20T12:59:39.408Z,28.08
2023-06-20T13:02:08.367Z,28.78
2023-06-20T13:04:36.344Z,29.01
2023-06-20T13:07:06.113Z,29.13
2023-06-20T13:09:34.049Z,28.76
2023-06-20T13:12:01.997Z,28.09
2023-06-20T13:14:32.615Z,27.89
2023-06-20T13:17:00.990Z,27.97
2023-06-20T13:19:28.932Z,28.18
2023-06-20T13:21:56.896Z,28.12
2023-06-20T13:24:26.257Z,27.49
2023-06-20T13:26:54.271Z,27.25
2023-06-20T13:29:22.317Z,28.31
2023-06-20T13:31:50.706Z,28.89
2023-06-20T13:34:18.922Z,29.20
2023-06-20T13:36:46.965Z,29.57
2023-06-20T13:39:15.154Z,29.48
2023-06-20T13:41:44.762Z,29.29
2023-06-20T13:44:12.757Z,29.77
2023-06-20T13:46:40.905Z,30.28
2023-06-20T13:49:08.959Z,30.90
2023-06-20T13:51:36.967Z,30.16
2023-06-20T13:54:07.184Z,30.33
2023-06-20T13:56:35.425Z,30.61
2023-06-20T13:59:04.857Z,30.92
2023-06-20T14:01:32.801Z,31.07
2023-06-20T14:04:02.735Z,40.21
2023-06-20T14:06:32.028Z,41.22
2023-06-20T14:09:00.085Z,41.25
2023-06-20T14:11:28.094Z,42.21
2023-06-20T14:13:56.027Z,42.50
2023-06-20T14:16:26.697Z,42.24
2023-06-20T14:18:56.659Z,43.78
2023-06-20T14:21:26.227Z,45.32
2023-06-20T14:23:54.288Z,46.56
2023-06-20T14:26:22.288Z,46.25
2023-06-20T14:28:50.448Z,48.04
2023-06-20T14:31:18.696Z,48.17
2023-06-20T14:33:48.046Z,47.66
2023-06-20T14:36:16.050Z,48.29
2023-06-20T14:38:45.978Z,47.96
2023-06-20T14:41:13.919Z,47.12
2023-06-20T14:43:41.989Z,46.77
2023-06-20T14:46:11.367Z,46.25
2023-06-20T14:48:39.320Z,46.79
2023-06-20T14:51:08.686Z,46.72
2023-06-20T14:53:36.629Z,46.25
2023-06-20T14:56:04.676Z,46.63
2023-06-20T14:58:32.619Z,46.38
2023-06-20T15:01:01.594Z,46.59
2023-06-20T15:03:29.837Z,46.29
2023-06-20T15:06:01.536Z,46.10
2023-06-20T15:08:31.393Z,46.55
2023-06-20T15:11:01.178Z,45.74
2023-06-20T15:13:29.313Z,46.15
2023-06-20T15:15:57.222Z,46.28
2023-06-20T15:18:25.493Z,46.33
2023-06-20T15:20:53.444Z,46.84
2023-06-20T15:23:21.402Z,47.15
2023-06-20T15:25:50.779Z,46.68
2023-06-20T15:28:20.589Z,46.88
2023-06-20T15:30:48.753Z,46.80
2023-06-20T15:33:16.756Z,45.92
2023-06-20T15:35:47.448Z,46.43
2023-06-20T15:38:15.488Z,45.97
2023-06-20T15:40:43.963Z,45.36
2023-06-20T15:43:13.487Z,45.96
2023-06-20T15:45:41.628Z,45.78
2023-06-20T15:48:12.095Z,45.55
2023-06-20T15:50:40.430Z,45.74
2023-06-20T15:53:08.583Z,45.58
2023-06-20T15:55:36.586Z,46.19
2023-06-20T15:58:04.851Z,45.51
2023-06-20T16:00:34.509Z,46.68
2023-06-20T16:03:03.143Z,46.19
2023-06-20T16:05:31.102Z,46.06
2023-06-20T16:07:59.053Z,45.50
2023-06-20T16:10:27.196Z,44.75
2023-06-20T16:12:55.411Z,45.58
2023-06-20T16:15:23.405Z,45.15
2023-06-20T16:17:52.868Z,44.91
2023-06-20T16:20:20.840Z,44.97
2023-06-20T16:22:48.888Z,45.07
2023-06-20T16:25:17.635Z,45.06
2023-06-20T16:27:45.818Z,45.28
2023-06-20T16:30:14.434Z,45.96
2023-06-20T16:32:42.540Z,45.68
2023-06-20T16:35:11.970Z,45.97
2023-06-20T16:37:39.921Z,45.90
2023-06-20T16:40:08.930Z,45.50
2023-06-20T16:42:36.819Z,44.61
2023-06-20T16:45:05.183Z,45.18
2023-06-20T16:47:33.199Z,44.59
2023-06-20T16:50:01.230Z,45.18
2023-06-20T16:52:30.547Z,44.50
2023-06-20T16:54:58.422Z,44.54
2023-06-20T16:57:26.520Z,44.40
2023-06-20T16:59:54.428Z,45.17
2023-06-20T17:02:23.400Z,45.43
2023-06-20T17:04:51.448Z,45.47
2023-06-20T17:07:21.970Z,45.53
2023-06-20T17:09:51.329Z,46.17
2023-06-20T17:12:19.317Z,46.82
2023-06-20T17:14:47.270Z,47.30
2023-06-20T17:17:15.199Z,47.58
2023-06-20T17:19:43.203Z,46.94
2023-06-20T17:22:12.009Z,47.19
2023-06-20T17:24:43.535Z,46.80
2023-06-20T17:27:14.878Z,46.74
2023-06-20T17:30:02.122Z,46.30
2023-06-20T17:32:30.167Z,45.98
2023-06-20T17:34:58.231Z,46.55
2023-06-20T17:37:26.243Z,45.94
2023-06-20T17:39:55.796Z,46.84
2023-06-20T17:42:25.550Z,46.39
2023-06-20T17:44:53.542Z,46.80
2023-06-20T17:47:21.583Z,46.71
2023-06-20T17:49:50.419Z,47.56
2023-06-20T17:52:18.969Z,47.61
2023-06-20T17:54:47.260Z,48.14
2023-06-20T17:57:15.243Z,47.96
2023-06-20T17:59:44.839Z,48.43
2023-06-20T18:02:14.494Z,47.70
2023-06-20T18:04:42.492Z,48.36
2023-06-20T18:07:10.500Z,48.06
2023-06-20T18:09:38.572Z,48.79
2023-06-20T18:12:07.847Z,48.98
2023-06-20T18:14:35.893Z,49.15
2023-06-20T18:17:05.302Z,49.07
2023-06-20T18:19:46.749Z,49.88
2023-06-20T18:22:21.149Z,49.79
2023-06-20T18:24:49.736Z,49.71
2023-06-20T18:27:17.767Z,49.90
2023-06-20T18:29:45.725Z,50.11
2023-06-20T18:32:16.914Z,51.08
2023-06-20T18:34:46.311Z,51.10
2023-06-20T18:37:14.281Z,50.98
2023-06-20T18:39:42.182Z,51.65
2023-06-20T18:42:10.318Z,51.72
2023-06-20T18:44:39.062Z,52.21
2023-06-20T18:47:07.722Z,52.13
2023-06-20T18:49:37.155Z,52.36
2023-06-20T18:52:05.649Z,52.68
2023-06-20T18:54:33.706Z,53.02
2023-06-20T18:57:03.793Z,53.34
2023-06-20T18:59:31.724Z,54.21
2023-06-20T19:01:59.715Z,54.37
2023-06-20T19:04:29.437Z,54.54
2023-06-20T19:06:58.755Z,55.00
2023-06-20T19:09:31.259Z,54.84
2023-06-20T19:11:59.268Z,55.24
2023-06-20T19:14:27.247Z,55.63
2023-06-20T19:16:55.219Z,55.76
2023-06-20T19:19:24.739Z,55.98
2023-06-20T19:21:52.804Z,55.74
2023-06-20T19:24:22.698Z,56.08
2023-06-20T19:26:50.852Z,55.86
2023-06-20T19:29:20.891Z,56.45
2023-06-20T19:31:49.177Z,56.80
2023-06-20T19:34:17.437Z,56.85
2023-06-20T19:36:45.424Z,58.14
2023-06-20T19:39:13.428Z,57.18
2023-06-20T19:41:43.793Z,57.28
2023-06-20T19:44:12.229Z,58.00
2023-06-20T19:46:40.779Z,57.50
2023-06-20T19:49:08.890Z,57.48
2023-06-20T19:51:39.294Z,56.97
2023-06-20T19:54:07.437Z,57.08
2023-06-20T19:56:35.444Z,58.18
2023-06-20T19:59:04.829Z,58.00
2023-06-20T20:01:32.884Z,58.03
2023-06-20T20:04:00.992Z,59.49
2023-06-20T20:06:29.012Z,58.74
2023-06-20T20:08:56.965Z,57.86
2023-06-20T20:11:24.946Z,57.81
2023-06-20T20:13:54.049Z,58.74
2023-06-20T20:16:23.486Z,58.02
2023-06-20T20:18:51.413Z,58.47
2023-06-20T20:21:20.306Z,58.42
2023-06-20T20:23:48.232Z,57.97
2023-06-20T20:26:16.516Z,58.29
2023-06-20T20:28:46.058Z,58.88
2023-06-20T20:31:14.195Z,58.66
2023-06-20T20:33:43.723Z,58.90
2023-06-20T20:36:11.608Z,58.80
2023-06-20T20:38:39.582Z,59.55
2023-06-20T20:41:07.769Z,59.30
2023-06-20T20:43:35.726Z,60.23
2023-06-20T20:46:04.862Z,62.70
2023-06-20T20:48:33.466Z,66.83
2023-06-20T20:51:02.900Z,68.58
2023-06-20T20:53:30.758Z,70.13
2023-06-20T20:55:58.787Z,70.56
2023-06-20T20:58:26.764Z,71.34
2023-06-20T21:00:54.779Z,71.64
2023-06-20T21:03:24.002Z,71.00
2023-06-20T21:05:54.171Z,69.65
2023-06-20T21:08:24.015Z,70.70
2023-06-20T21:10:52.061Z,70.94
2023-06-20T21:13:20.014Z,70.57
2023-06-20T21:15:47.987Z,70.80
2023-06-20T21:18:15.982Z,71.10
2023-06-20T21:20:43.987Z,71.70
2023-06-20T21:23:12.020Z,72.47
2023-06-20T21:25:41.459Z,74.08
2023-06-20T21:28:11.421Z,74.21
2023-06-20T21:30:39.401Z,74.35
2023-06-20T21:33:07.786Z,74.34
2023-06-20T21:35:35.767Z,75.31
2023-06-20T21:38:04.273Z,75.54
2023-06-20T21:40:32.494Z,75.83
2023-06-20T21:43:01.807Z,76.08
2023-06-20T21:45:29.760Z,76.03
2023-06-20T21:47:57.831Z,76.85
2023-06-20T21:50:26.315Z,77.35
2023-06-20T21:52:54.457Z,78.18
2023-06-20T21:55:22.426Z,77.00
2023-06-20T21:57:50.469Z,77.40
2023-06-20T22:00:20.426Z,78.40
2023-06-20T22:02:48.384Z,78.40
2023-06-20T22:05:16.775Z,78.70
2023-06-20T22:07:44.805Z,79.13
2023-06-20T22:10:12.958Z,79.49
2023-06-20T22:12:43.705Z,79.77
2023-06-20T22:15:11.972Z,80.02
2023-06-20T22:17:41.368Z,79.16
2023-06-20T22:20:12.492Z,79.20
2023-06-20T22:22:40.926Z,79.11
2023-06-20T22:25:10.549Z,79.86
2023-06-20T22:27:38.503Z,80.88
2023-06-20T22:30:09.555Z,81.07
2023-06-20T22:32:37.666Z,80.05
2023-06-20T22:35:08.415Z,81.13
2023-06-20T22:37:36.441Z,80.83
2023-06-20T22:40:06.432Z,81.61
2023-06-20T22:42:34.625Z,81.59
2023-06-20T22:45:03.864Z,81.67
2023-06-20T22:47:31.846Z,81.62
2023-06-20T22:50:00.041Z,82.22
2023-06-20T22:52:29.542Z,82.22
2023-06-20T22:54:57.538Z,82.50
2023-06-20T22:57:25.479Z,82.46
2023-06-20T22:59:53.594Z,82.14
2023-06-20T23:02:21.703Z,82.57
2023-06-20T23:04:50.889Z,81.27
2023-06-20T23:07:18.872Z,79.63
2023-06-20T23:09:48.267Z,79.15
2023-06-20T23:12:16.376Z,78.79
2023-06-20T23:14:44.771Z,79.42
2023-06-20T23:17:12.666Z,79.06
2023-06-20T23:19:40.661Z,80.78
2023-06-20T23:22:08.925Z,80.59
2023-06-20T23:24:36.947Z,80.50
2023-06-20T23:27:06.657Z,80.86
2023-06-20T23:29:34.624Z,79.94
2023-06-20T23:32:02.698Z,79.48
2023-06-20T23:34:30.794Z,79.47
2023-06-20T23:36:58.916Z,80.46
2023-06-20T23:39:26.967Z,80.92
2023-06-20T23:41:55.043Z,81.36
2023-06-20T23:44:24.471Z,81.51
2023-06-20T23:46:52.803Z,81.02
2023-06-20T23:49:21.088Z,81.88
2023-06-20T23:51:49.179Z,81.80
2023-06-20T23:54:17.103Z,82.17
2023-06-20T23:56:45.044Z,82.79
2023-06-20T23:59:17.947Z,82.54
